sensor_id;sensor_type;location;lat;lon;timestamp;temperature;humidity
25108;DHT22;13090;53.422;7.670;2023-04-01T00:01:50;12.10;93.10
25108;DHT22;13090;53.422;7.670;2023-04-01T00:06:52;12.10;93.00
25108;DHT22;13090;53.422;7.670;2023-04-01T00:11:56;12.10;93.20
25108;DHT22;13090;53.422;7.670;2023-04-01T00:16:58;12.10;93.10
25108;DHT22;13090;53.422;7.670;2023-04-01T00:22:00;12.10;93.20
25108;DHT22;13090;53.422;7.670;2023-04-01T00:27:04;12.10;93.10
25108;DHT22;13090;53.422;7.670;2023-04-01T00:32:06;12.10;93.20
25108;DHT22;13090;53.422;7.670;2023-04-01T00:37:09;12.10;93.30
25108;DHT22;13090;53.422;7.670;2023-04-01T00:42:13;12.10;93.40
25108;DHT22;13090;53.422;7.670;2023-04-01T00:47:15;12.10;93.40
25108;DHT22;13090;53.422;7.670;2023-04-01T00:52:21;12.10;93.60
25108;DHT22;13090;53.422;7.670;2023-04-01T00:57:29;12.10;93.70
25108;DHT22;13090;53.422;7.670;2023-04-01T01:02:33;12.10;93.70
25108;DHT22;13090;53.422;7.670;2023-04-01T01:07:40;12.10;93.70
25108;DHT22;13090;53.422;7.670;2023-04-01T01:12:53;12.10;93.90
25108;DHT22;13090;53.422;7.670;2023-04-01T01:18:04;12.10;94.30
25108;DHT22;13090;53.422;7.670;2023-04-01T01:23:29;12.10;93.90
25108;DHT22;13090;53.422;7.670;2023-04-01T01:28:47;12.00;94.20
25108;DHT22;13090;53.422;7.670;2023-04-01T01:34:07;12.00;94.30
25108;DHT22;13090;53.422;7.670;2023-04-01T01:39:15;12.00;94.20
25108;DHT22;13090;53.422;7.670;2023-04-01T01:44:20;12.00;94.20
25108;DHT22;13090;53.422;7.670;2023-04-01T01:49:23;12.00;94.20
25108;DHT22;13090;53.422;7.670;2023-04-01T01:54:28;12.00;94.20
25108;DHT22;13090;53.422;7.670;2023-04-01T01:59:31;12.00;94.20
25108;DHT22;13090;53.422;7.670;2023-04-01T02:04:38;12.00;94.20
25108;DHT22;13090;53.422;7.670;2023-04-01T02:09:43;12.00;94.30
25108;DHT22;13090;53.422;7.670;2023-04-01T02:14:51;12.00;94.20
25108;DHT22;13090;53.422;7.670;2023-04-01T02:19:57;12.00;94.20
25108;DHT22;13090;53.422;7.670;2023-04-01T02:25:05;12.10;94.10
25108;DHT22;13090;53.422;7.670;2023-04-01T02:30:09;12.10;94.20
25108;DHT22;13090;53.422;7.670;2023-04-01T02:35:14;12.10;94.10
25108;DHT22;13090;53.422;7.670;2023-04-01T02:40:19;12.10;94.10
25108;DHT22;13090;53.422;7.670;2023-04-01T02:45:21;12.10;94.10
25108;DHT22;13090;53.422;7.670;2023-04-01T02:50:23;12.10;94.10
25108;DHT22;13090;53.422;7.670;2023-04-01T02:55:27;12.10;94.10
25108;DHT22;13090;53.422;7.670;2023-04-01T03:00:29;12.20;93.90
25108;DHT22;13090;53.422;7.670;2023-04-01T03:05:31;12.20;93.90
25108;DHT22;13090;53.422;7.670;2023-04-01T03:10:35;12.20;93.80
25108;DHT22;13090;53.422;7.670;2023-04-01T03:15:37;12.20;93.90
25108;DHT22;13090;53.422;7.670;2023-04-01T03:20:39;12.20;94.10
25108;DHT22;13090;53.422;7.670;2023-04-01T03:25:43;12.10;94.20
25108;DHT22;13090;53.422;7.670;2023-04-01T03:30:45;12.20;94.20
25108;DHT22;13090;53.422;7.670;2023-04-01T03:35:47;12.20;94.20
25108;DHT22;13090;53.422;7.670;2023-04-01T03:40:51;12.20;94.20
25108;DHT22;13090;53.422;7.670;2023-04-01T03:45:53;12.20;94.20
25108;DHT22;13090;53.422;7.670;2023-04-01T03:50:55;12.20;94.20
25108;DHT22;13090;53.422;7.670;2023-04-01T03:56:03;12.20;94.20
25108;DHT22;13090;53.422;7.670;2023-04-01T04:01:14;12.20;94.20
25108;DHT22;13090;53.422;7.670;2023-04-01T04:06:18;12.20;94.20
25108;DHT22;13090;53.422;7.670;2023-04-01T04:11:22;12.20;94.10
25108;DHT22;13090;53.422;7.670;2023-04-01T04:16:24;12.20;94.20
25108;DHT22;13090;53.422;7.670;2023-04-01T04:21:27;12.20;94.00
25108;DHT22;13090;53.422;7.670;2023-04-01T04:26:31;12.20;93.90
25108;DHT22;13090;53.422;7.670;2023-04-01T04:31:33;12.30;93.80
25108;DHT22;13090;53.422;7.670;2023-04-01T04:36:35;12.20;93.80
25108;DHT22;13090;53.422;7.670;2023-04-01T04:41:39;12.20;93.90
25108;DHT22;13090;53.422;7.670;2023-04-01T04:46:42;12.30;93.90
25108;DHT22;13090;53.422;7.670;2023-04-01T04:51:44;12.30;93.80
25108;DHT22;13090;53.422;7.670;2023-04-01T04:56:50;12.30;93.90
25108;DHT22;13090;53.422;7.670;2023-04-01T05:01:53;12.20;93.80
25108;DHT22;13090;53.422;7.670;2023-04-01T05:06:55;12.20;93.70
25108;DHT22;13090;53.422;7.670;2023-04-01T05:11:58;12.20;93.70
25108;DHT22;13090;53.422;7.670;2023-04-01T05:17:01;12.20;93.60
25108;DHT22;13090;53.422;7.670;2023-04-01T05:22:03;12.30;93.60
25108;DHT22;13090;53.422;7.670;2023-04-01T05:27:07;12.30;93.70
25108;DHT22;13090;53.422;7.670;2023-04-01T05:32:09;12.20;93.80
25108;DHT22;13090;53.422;7.670;2023-04-01T05:37:11;12.20;93.70
25108;DHT22;13090;53.422;7.670;2023-04-01T05:42:15;12.20;93.80
25108;DHT22;13090;53.422;7.670;2023-04-01T05:47:17;12.30;93.70
25108;DHT22;13090;53.422;7.670;2023-04-01T05:52:19;12.30;93.70
25108;DHT22;13090;53.422;7.670;2023-04-01T05:57:23;12.30;93.60
25108;DHT22;13090;53.422;7.670;2023-04-01T06:02:25;12.30;93.70
25108;DHT22;13090;53.422;7.670;2023-04-01T06:07:28;12.30;93.80
25108;DHT22;13090;53.422;7.670;2023-04-01T06:12:44;12.40;93.90
25108;DHT22;13090;53.422;7.670;2023-04-01T06:17:58;12.40;93.90
25108;DHT22;13090;53.422;7.670;2023-04-01T06:23:24;12.30;94.00
25108;DHT22;13090;53.422;7.670;2023-04-01T06:29:00;12.40;94.00
25108;DHT22;13090;53.422;7.670;2023-04-01T06:34:19;12.50;93.80
25108;DHT22;13090;53.422;7.670;2023-04-01T06:39:39;12.50;94.20
25108;DHT22;13090;53.422;7.670;2023-04-01T06:44:55;12.40;93.90
25108;DHT22;13090;53.422;7.670;2023-04-01T06:50:07;12.40;93.90
25108;DHT22;13090;53.422;7.670;2023-04-01T06:55:24;12.50;93.90
25108;DHT22;13090;53.422;7.670;2023-04-01T07:00:31;12.60;93.90
25108;DHT22;13090;53.422;7.670;2023-04-01T07:05:35;12.60;93.90
25108;DHT22;13090;53.422;7.670;2023-04-01T07:10:44;12.60;93.60
25108;DHT22;13090;53.422;7.670;2023-04-01T07:16:03;12.70;93.70
25108;DHT22;13090;53.422;7.670;2023-04-01T07:21:14;12.70;93.60
25108;DHT22;13090;53.422;7.670;2023-04-01T07:26:21;12.80;93.50
25108;DHT22;13090;53.422;7.670;2023-04-01T07:31:36;12.80;93.40
25108;DHT22;13090;53.422;7.670;2023-04-01T07:36:48;12.90;93.40
25108;DHT22;13090;53.422;7.670;2023-04-01T07:41:56;12.90;93.30
25108;DHT22;13090;53.422;7.670;2023-04-01T07:47:29;12.90;92.60
25108;DHT22;13090;53.422;7.670;2023-04-01T07:52:40;12.70;92.30
25108;DHT22;13090;53.422;7.670;2023-04-01T07:57:49;12.50;92.00
25108;DHT22;13090;53.422;7.670;2023-04-01T08:03:11;12.30;92.10
25108;DHT22;13090;53.422;7.670;2023-04-01T08:08:28;12.10;92.10
25108;DHT22;13090;53.422;7.670;2023-04-01T08:13:37;11.90;92.20
25108;DHT22;13090;53.422;7.670;2023-04-01T08:18:47;11.70;92.30
25108;DHT22;13090;53.422;7.670;2023-04-01T08:23:56;11.60;92.40
25108;DHT22;13090;53.422;7.670;2023-04-01T08:29:02;11.40;92.50
25108;DHT22;13090;53.422;7.670;2023-04-01T08:34:13;11.30;92.50
25108;DHT22;13090;53.422;7.670;2023-04-01T08:39:20;11.20;92.80
25108;DHT22;13090;53.422;7.670;2023-04-01T08:44:48;11.20;92.90
25108;DHT22;13090;53.422;7.670;2023-04-01T08:55:55;11.10;92.90
25108;DHT22;13090;53.422;7.670;2023-04-01T09:01:15;11.10;92.90
25108;DHT22;13090;53.422;7.670;2023-04-01T09:06:35;11.00;93.00
25108;DHT22;13090;53.422;7.670;2023-04-01T09:11:51;11.00;93.10
25108;DHT22;13090;53.422;7.670;2023-04-01T09:23:04;11.00;92.80
25108;DHT22;13090;53.422;7.670;2023-04-01T09:28:17;10.90;92.90
25108;DHT22;13090;53.422;7.670;2023-04-01T09:33:42;10.90;93.00
25108;DHT22;13090;53.422;7.670;2023-04-01T09:38:56;10.90;93.00
25108;DHT22;13090;53.422;7.670;2023-04-01T09:44:02;10.90;93.00
25108;DHT22;13090;53.422;7.670;2023-04-01T09:49:28;10.90;93.20
25108;DHT22;13090;53.422;7.670;2023-04-01T09:54:50;10.90;93.20
25108;DHT22;13090;53.422;7.670;2023-04-01T10:00:18;11.00;93.10
25108;DHT22;13090;53.422;7.670;2023-04-01T10:05:46;11.00;92.90
25108;DHT22;13090;53.422;7.670;2023-04-01T10:11:23;10.90;93.00
25108;DHT22;13090;53.422;7.670;2023-04-01T10:17:05;10.90;93.10
25108;DHT22;13090;53.422;7.670;2023-04-01T10:22:44;10.90;92.80
25108;DHT22;13090;53.422;7.670;2023-04-01T10:28:16;10.80;92.90
25108;DHT22;13090;53.422;7.670;2023-04-01T10:33:58;10.80;93.00
25108;DHT22;13090;53.422;7.670;2023-04-01T10:39:29;10.90;92.80
25108;DHT22;13090;53.422;7.670;2023-04-01T10:50:39;10.90;92.60
25108;DHT22;13090;53.422;7.670;2023-04-01T11:01:57;11.10;92.60
25108;DHT22;13090;53.422;7.670;2023-04-01T11:07:44;11.10;91.80
25108;DHT22;13090;53.422;7.670;2023-04-01T11:24:38;11.30;92.10
25108;DHT22;13090;53.422;7.670;2023-04-01T11:29:57;11.40;91.70
25108;DHT22;13090;53.422;7.670;2023-04-01T11:40:37;11.40;90.70
25108;DHT22;13090;53.422;7.670;2023-04-01T11:45:46;11.40;91.20
25108;DHT22;13090;53.422;7.670;2023-04-01T11:51:07;11.40;91.20
25108;DHT22;13090;53.422;7.670;2023-04-01T11:56:29;11.40;90.90
25108;DHT22;13090;53.422;7.670;2023-04-01T12:01:41;11.20;91.10
25108;DHT22;13090;53.422;7.670;2023-04-01T12:06:49;11.20;91.10
25108;DHT22;13090;53.422;7.670;2023-04-01T12:12:04;11.30;91.00
25108;DHT22;13090;53.422;7.670;2023-04-01T12:17:19;11.30;90.70
25108;DHT22;13090;53.422;7.670;2023-04-01T12:22:40;11.30;91.10
25108;DHT22;13090;53.422;7.670;2023-04-01T12:27:53;11.30;90.60
25108;DHT22;13090;53.422;7.670;2023-04-01T12:33:13;11.30;90.80
25108;DHT22;13090;53.422;7.670;2023-04-01T12:38:28;11.30;90.90
25108;DHT22;13090;53.422;7.670;2023-04-01T12:55:19;11.10;90.60
25108;DHT22;13090;53.422;7.670;2023-04-01T13:00:35;11.10;90.80
25108;DHT22;13090;53.422;7.670;2023-04-01T13:06:22;11.20;90.90
25108;DHT22;13090;53.422;7.670;2023-04-01T13:11:38;11.20;90.70
25108;DHT22;13090;53.422;7.670;2023-04-01T13:16:46;11.20;90.30
25108;DHT22;13090;53.422;7.670;2023-04-01T13:22:01;11.10;90.20
25108;DHT22;13090;53.422;7.670;2023-04-01T13:27:12;11.00;89.80
25108;DHT22;13090;53.422;7.670;2023-04-01T13:32:23;11.00;90.50
25108;DHT22;13090;53.422;7.670;2023-04-01T13:37:54;11.00;90.20
25108;DHT22;13090;53.422;7.670;2023-04-01T13:43:02;11.00;90.50
25108;DHT22;13090;53.422;7.670;2023-04-01T13:48:27;11.00;90.00
25108;DHT22;13090;53.422;7.670;2023-04-01T14:05:01;10.80;90.40
25108;DHT22;13090;53.422;7.670;2023-04-01T14:10:19;10.70;90.20
25108;DHT22;13090;53.422;7.670;2023-04-01T14:15:49;10.70;90.60
25108;DHT22;13090;53.422;7.670;2023-04-01T14:21:21;10.70;90.80
25108;DHT22;13090;53.422;7.670;2023-04-01T14:32:12;10.60;90.30
25108;DHT22;13090;53.422;7.670;2023-04-01T14:37:53;10.50;90.30
25108;DHT22;13090;53.422;7.670;2023-04-01T14:43:19;10.50;90.30
25108;DHT22;13090;53.422;7.670;2023-04-01T14:48:32;10.40;90.30
25108;DHT22;13090;53.422;7.670;2023-04-01T14:53:41;10.20;90.30
25108;DHT22;13090;53.422;7.670;2023-04-01T14:58:46;10.10;90.30
25108;DHT22;13090;53.422;7.670;2023-04-01T15:03:56;10.00;90.40
25108;DHT22;13090;53.422;7.670;2023-04-01T15:09:10;9.90;90.70
25108;DHT22;13090;53.422;7.670;2023-04-01T15:14:34;9.90;90.70
25108;DHT22;13090;53.422;7.670;2023-04-01T15:19:56;9.80;90.50
25108;DHT22;13090;53.422;7.670;2023-04-01T15:25:18;9.70;90.60
25108;DHT22;13090;53.422;7.670;2023-04-01T15:30:35;9.50;90.60
25108;DHT22;13090;53.422;7.670;2023-04-01T15:35:46;9.50;90.80
25108;DHT22;13090;53.422;7.670;2023-04-01T15:40:55;9.50;90.80
25108;DHT22;13090;53.422;7.670;2023-04-01T15:46:13;9.40;90.80
25108;DHT22;13090;53.422;7.670;2023-04-01T15:51:32;9.40;90.70
25108;DHT22;13090;53.422;7.670;2023-04-01T15:56:49;9.40;90.60
25108;DHT22;13090;53.422;7.670;2023-04-01T16:01:57;9.40;90.50
25108;DHT22;13090;53.422;7.670;2023-04-01T16:07:11;9.40;90.60
25108;DHT22;13090;53.422;7.670;2023-04-01T16:12:21;9.30;90.30
25108;DHT22;13090;53.422;7.670;2023-04-01T16:23:00;9.30;90.50
25108;DHT22;13090;53.422;7.670;2023-04-01T16:28:16;9.20;90.50
25108;DHT22;13090;53.422;7.670;2023-04-01T16:33:24;9.20;90.40
25108;DHT22;13090;53.422;7.670;2023-04-01T16:38:37;9.20;90.50
25108;DHT22;13090;53.422;7.670;2023-04-01T16:43:44;9.20;90.60
25108;DHT22;13090;53.422;7.670;2023-04-01T16:48:59;9.20;90.50
25108;DHT22;13090;53.422;7.670;2023-04-01T16:54:06;9.20;90.30
25108;DHT22;13090;53.422;7.670;2023-04-01T16:59:19;9.10;90.40
25108;DHT22;13090;53.422;7.670;2023-04-01T17:04:32;9.10;90.40
25108;DHT22;13090;53.422;7.670;2023-04-01T17:09:51;9.10;90.20
25108;DHT22;13090;53.422;7.670;2023-04-01T17:15:04;9.00;90.30
25108;DHT22;13090;53.422;7.670;2023-04-01T17:20:20;9.00;90.50
25108;DHT22;13090;53.422;7.670;2023-04-01T17:25:38;8.90;90.30
25108;DHT22;13090;53.422;7.670;2023-04-01T17:30:49;8.90;90.10
25108;DHT22;13090;53.422;7.670;2023-04-01T17:35:58;8.80;90.10
25108;DHT22;13090;53.422;7.670;2023-04-01T17:41:07;8.70;90.20
25108;DHT22;13090;53.422;7.670;2023-04-01T17:46:27;8.70;90.40
25108;DHT22;13090;53.422;7.670;2023-04-01T17:51:37;8.70;90.20
25108;DHT22;13090;53.422;7.670;2023-04-01T17:56:54;8.60;90.30
25108;DHT22;13090;53.422;7.670;2023-04-01T18:02:06;8.50;90.20
25108;DHT22;13090;53.422;7.670;2023-04-01T18:13:10;8.50;90.40
25108;DHT22;13090;53.422;7.670;2023-04-01T18:18:33;8.40;90.30
25108;DHT22;13090;53.422;7.670;2023-04-01T18:23:43;8.40;90.50
25108;DHT22;13090;53.422;7.670;2023-04-01T18:29:01;8.40;90.40
25108;DHT22;13090;53.422;7.670;2023-04-01T18:34:08;8.30;90.30
25108;DHT22;13090;53.422;7.670;2023-04-01T18:39:17;8.20;90.30
25108;DHT22;13090;53.422;7.670;2023-04-01T18:44:30;8.10;90.20
25108;DHT22;13090;53.422;7.670;2023-04-01T18:49:40;8.00;90.30
25108;DHT22;13090;53.422;7.670;2023-04-01T18:54:47;8.00;90.30
25108;DHT22;13090;53.422;7.670;2023-04-01T18:59:57;7.90;90.40
25108;DHT22;13090;53.422;7.670;2023-04-01T19:05:10;7.90;90.40
25108;DHT22;13090;53.422;7.670;2023-04-01T19:10:17;7.90;90.40
25108;DHT22;13090;53.422;7.670;2023-04-01T19:15:33;7.90;90.20
25108;DHT22;13090;53.422;7.670;2023-04-01T19:20:43;7.80;90.20
25108;DHT22;13090;53.422;7.670;2023-04-01T19:25:50;7.80;90.20
25108;DHT22;13090;53.422;7.670;2023-04-01T19:30:57;7.80;90.20
25108;DHT22;13090;53.422;7.670;2023-04-01T19:36:09;7.80;90.20
25108;DHT22;13090;53.422;7.670;2023-04-01T19:46:44;7.80;90.10
25108;DHT22;13090;53.422;7.670;2023-04-01T19:51:51;7.70;90.00
25108;DHT22;13090;53.422;7.670;2023-04-01T19:57:06;7.70;89.50
25108;DHT22;13090;53.422;7.670;2023-04-01T20:02:42;7.70;89.60
25108;DHT22;13090;53.422;7.670;2023-04-01T20:07:52;7.70;89.90
25108;DHT22;13090;53.422;7.670;2023-04-01T20:13:02;7.70;89.90
25108;DHT22;13090;53.422;7.670;2023-04-01T20:18:14;7.60;89.20
25108;DHT22;13090;53.422;7.670;2023-04-01T20:23:29;7.60;89.20
25108;DHT22;13090;53.422;7.670;2023-04-01T20:28:43;7.60;89.10
25108;DHT22;13090;53.422;7.670;2023-04-01T20:34:08;7.50;88.80
25108;DHT22;13090;53.422;7.670;2023-04-01T20:44:59;7.50;88.70
25108;DHT22;13090;53.422;7.670;2023-04-01T20:50:19;7.40;88.90
25108;DHT22;13090;53.422;7.670;2023-04-01T21:01:03;7.30;87.80
25108;DHT22;13090;53.422;7.670;2023-04-01T21:11:53;7.20;86.70
25108;DHT22;13090;53.422;7.670;2023-04-01T21:17:03;7.10;86.60
25108;DHT22;13090;53.422;7.670;2023-04-01T21:22:39;7.10;87.40
25108;DHT22;13090;53.422;7.670;2023-04-01T21:27:56;7.00;87.40
25108;DHT22;13090;53.422;7.670;2023-04-01T21:33:12;7.00;87.40
25108;DHT22;13090;53.422;7.670;2023-04-01T21:38:35;6.90;87.40
25108;DHT22;13090;53.422;7.670;2023-04-01T21:55:20;6.80;87.10
25108;DHT22;13090;53.422;7.670;2023-04-01T22:00:31;6.70;87.10
25108;DHT22;13090;53.422;7.670;2023-04-01T22:05:36;6.60;87.20
25108;DHT22;13090;53.422;7.670;2023-04-01T22:10:48;6.50;87.10
25108;DHT22;13090;53.422;7.670;2023-04-01T22:16:00;6.40;86.70
25108;DHT22;13090;53.422;7.670;2023-04-01T22:21:12;6.20;87.10
25108;DHT22;13090;53.422;7.670;2023-04-01T22:26:22;6.10;87.40
25108;DHT22;13090;53.422;7.670;2023-04-01T22:31:28;6.00;88.10
25108;DHT22;13090;53.422;7.670;2023-04-01T22:36:40;6.00;87.60
25108;DHT22;13090;53.422;7.670;2023-04-01T22:42:00;5.90;87.70
25108;DHT22;13090;53.422;7.670;2023-04-01T22:47:05;5.80;87.80
25108;DHT22;13090;53.422;7.670;2023-04-01T22:52:16;5.70;87.20
25108;DHT22;13090;53.422;7.670;2023-04-01T22:57:38;5.70;87.70
25108;DHT22;13090;53.422;7.670;2023-04-01T23:02:45;5.60;87.70
25108;DHT22;13090;53.422;7.670;2023-04-01T23:07:56;5.50;87.80
25108;DHT22;13090;53.422;7.670;2023-04-01T23:13:04;5.50;87.20
25108;DHT22;13090;53.422;7.670;2023-04-01T23:18:17;5.40;87.70
25108;DHT22;13090;53.422;7.670;2023-04-01T23:23:30;5.30;87.40
25108;DHT22;13090;53.422;7.670;2023-04-01T23:28:43;5.30;87.50
25108;DHT22;13090;53.422;7.670;2023-04-01T23:33:53;5.30;87.00
25108;DHT22;13090;53.422;7.670;2023-04-01T23:38:56;5.20;87.10
25108;DHT22;13090;53.422;7.670;2023-04-01T23:44:04;5.20;87.00
25108;DHT22;13090;53.422;7.670;2023-04-01T23:49:12;5.10;87.20
25108;DHT22;13090;53.422;7.670;2023-04-01T23:54:19;5.10;87.20
25108;DHT22;13090;53.422;7.670;2023-04-01T23:59:29;5.00;86.60
